Time;durP1;ratioP1;P1;durP2;ratioP2;P2;SDS_P1;SDS_P2;PMS_P1;PMS_P2;Temp;Humidity;BMP_temperature;BMP_pressure;BME280_temperature;BME280_humidity;BME280_pressure;Samples;Min_cycle;Max_cycle;Signal;HPM_P1;HPM_P2
2022/12/23 00:04:58;;;;;;;10.77;4.82;;;;;;;19.63;52.70;95908.75;10328867;28;20499;-51
2022/12/23 00:10:18;;;;;;;12.38;5.03;;;;;;;19.62;52.56;95901.75;10303788;28;20198;-48
2022/12/23 00:15:37;;;;;;;10.88;4.70;;;;;;;19.61;52.71;95894.81;10341743;28;20061;-49
2022/12/23 00:21:02;;;;;;;10.15;4.88;;;;;;;19.60;52.82;95891.31;10333783;28;20063;-48
2022/12/23 00:26:24;;;;;;;8.27;4.28;;;;;;;19.58;52.73;95887.38;10334163;28;20110;-49
2022/12/23 00:31:44;;;;;;;12.00;4.28;;;;;;;19.58;52.73;95892.78;10331174;28;20062;-50
2022/12/23 00:37:03;;;;;;;8.80;4.22;;;;;;;19.55;52.84;95888.84;10300625;28;20225;-47
2022/12/23 00:43:05;;;;;;;9.38;4.40;;;;;;;19.53;52.86;95886.50;10339975;28;20050;-50
2022/12/23 00:53:43;;;;;;;6.97;3.77;;;;;;;19.51;53.03;95877.97;10328461;28;20066;-50
2022/12/23 00:59:02;;;;;;;9.70;3.60;;;;;;;19.50;53.01;95876.41;10343181;28;20058;-49
2022/12/23 01:10:01;;;;;;;6.63;3.50;;;;;;;19.47;53.14;95871.69;10313622;28;20062;-48
2022/12/23 01:15:21;;;;;;;7.78;4.05;;;;;;;19.47;53.08;95870.91;10344414;28;20054;-51
2022/12/23 01:20:41;;;;;;;7.18;3.38;;;;;;;19.45;53.22;95873.16;10325298;28;20054;-51
2022/12/23 01:26:05;;;;;;;7.50;3.78;;;;;;;19.43;53.10;95864.63;10331661;28;20058;-48
2022/12/23 01:31:25;;;;;;;6.97;3.70;;;;;;;19.42;53.30;95868.44;10330871;28;20066;-48
2022/12/23 01:36:44;;;;;;;5.90;3.22;;;;;;;19.40;53.24;95857.97;10332785;28;20057;-50
2022/12/23 01:47:48;;;;;;;7.25;3.88;;;;;;;19.38;53.35;95846.72;10318284;28;20407;-50
2022/12/23 01:53:14;;;;;;;7.70;3.85;;;;;;;19.38;53.20;95845.94;10334436;28;20513;-49
2022/12/23 01:58:37;;;;;;;6.65;3.30;;;;;;;19.35;53.40;95844.75;10321797;28;20105;-50
2022/12/23 02:03:59;;;;;;;6.78;3.22;;;;;;;19.34;53.52;95843.16;10315395;28;20426;-50
2022/12/23 02:09:28;;;;;;;6.22;3.40;;;;;;;19.33;53.47;95844.31;10329153;28;20070;-49
2022/12/23 02:21:20;;;;;;;5.72;3.05;;;;;;;19.31;53.53;95841.16;10344680;28;20061;-49
2022/12/23 02:26:58;;;;;;;6.20;3.42;;;;;;;19.29;53.44;95846.91;10336861;28;20058;-48
2022/12/23 02:32:38;;;;;;;7.45;3.17;;;;;;;19.28;53.61;95847.25;10313131;28;20061;-50
2022/12/23 02:38:03;;;;;;;6.43;3.20;;;;;;;19.26;53.52;95839.47;10328373;28;20065;-48
2022/12/23 02:43:40;;;;;;;6.03;3.15;;;;;;;19.26;53.50;95830.59;10352890;28;20042;-50
2022/12/23 02:49:03;;;;;;;5.72;2.92;;;;;;;19.24;53.54;95825.53;10325142;28;20054;-50
2022/12/23 02:54:30;;;;;;;5.72;3.10;;;;;;;19.23;53.65;95829.38;10333372;28;20061;-50
2022/12/23 02:59:50;;;;;;;3.85;2.55;;;;;;;19.22;53.69;95825.09;10338370;28;20502;-48
2022/12/23 03:05:27;;;;;;;4.22;2.58;;;;;;;19.21;53.71;95820.84;10339100;28;21493;-48
2022/12/23 03:11:09;;;;;;;4.35;2.47;;;;;;;19.20;53.75;95818.47;10338018;28;20545;-50
2022/12/23 03:16:50;;;;;;;5.53;2.47;;;;;;;19.17;53.69;95812.66;10318442;28;20050;-49
2022/12/23 03:22:24;;;;;;;5.60;2.72;;;;;;;19.16;53.68;95813.75;10338219;28;20066;-51
2022/12/23 03:27:50;;;;;;;6.72;2.72;;;;;;;19.15;53.59;95809.50;10347295;28;20058;-49
2022/12/23 03:33:17;;;;;;;4.22;2.63;;;;;;;19.15;53.60;95811.41;10337339;28;20062;-50
2022/12/23 03:38:38;;;;;;;4.80;2.50;;;;;;;19.13;53.79;95806.38;10336332;28;20059;-51
2022/12/23 03:44:23;;;;;;;3.72;2.53;;;;;;;19.12;53.83;95799.38;10322748;28;20062;-49
2022/12/23 03:50:12;;;;;;;4.28;2.30;;;;;;;19.10;53.85;95792.78;10322671;28;20054;-50
2022/12/23 03:55:36;;;;;;;4.78;2.40;;;;;;;19.10;53.72;95804.34;10314819;28;20058;-51
2022/12/23 04:00:59;;;;;;;4.38;2.47;;;;;;;19.08;53.74;95801.22;10336767;28;20114;-51
2022/12/23 04:06:19;;;;;;;4.47;2.50;;;;;;;19.08;53.75;95808.53;10335958;28;20557;-51
2022/12/23 04:11:39;;;;;;;4.88;2.60;;;;;;;19.07;53.92;95806.94;10330182;28;20065;-50
2022/12/23 04:16:59;;;;;;;3.70;2.30;;;;;;;19.05;53.79;95801.91;10318170;28;20146;-49
2022/12/23 04:22:18;;;;;;;3.50;2.25;;;;;;;19.04;53.81;95803.03;10321335;28;20054;-48
2022/12/23 04:27:38;;;;;;;4.45;2.30;;;;;;;19.04;53.84;95799.56;10345520;28;20050;-51
2022/12/23 04:32:57;;;;;;;4.10;2.15;;;;;;;19.02;53.79;95791.78;10335367;28;20062;-51
2022/12/23 04:38:17;;;;;;;3.30;2.33;;;;;;;19.01;53.80;95794.84;10331653;28;20526;-50
2022/12/23 04:43:36;;;;;;;3.50;2.10;;;;;;;19.00;53.68;95795.97;10321122;28;20085;-48
2022/12/23 04:48:55;;;;;;;4.20;2.20;;;;;;;18.98;53.85;95796.31;10325520;28;20059;-48
2022/12/23 04:54:15;;;;;;;4.18;2.13;;;;;;;18.97;53.74;95797.44;10319168;28;20070;-51
2022/12/23 04:59:35;;;;;;;2.83;1.77;;;;;;;18.96;53.77;95807.44;10330755;28;20054;-50
2022/12/23 05:04:54;;;;;;;6.47;1.92;;;;;;;18.95;53.71;95802.38;10333897;28;20062;-50
2022/12/23 05:10:13;;;;;;;3.92;1.95;;;;;;;18.94;53.87;95800.84;10345065;28;20050;-51
2022/12/23 05:15:32;;;;;;;2.95;1.83;;;;;;;18.93;53.89;95800.06;10346360;28;20521;-51
2022/12/23 05:20:52;;;;;;;2.88;2.00;;;;;;;18.93;53.97;95807.34;10329984;28;20528;-49
2022/12/23 05:26:11;;;;;;;2.58;1.80;;;;;;;18.93;53.92;95810.03;10312696;28;20550;-48
2022/12/23 05:31:31;;;;;;;2.97;1.83;;;;;;;18.90;54.04;95802.66;10302370;28;20069;-50
2022/12/23 05:36:50;;;;;;;2.65;1.55;;;;;;;18.90;54.06;95800.72;10316006;28;20053;-48
2022/12/23 05:42:10;;;;;;;3.50;2.08;;;;;;;18.90;54.26;95794.56;10314438;28;20514;-50
2022/12/23 05:47:29;;;;;;;2.13;1.70;;;;;;;18.91;54.04;95790.72;10313144;28;20046;-52
2022/12/23 05:52:49;;;;;;;2.97;1.50;;;;;;;18.92;54.14;95798.47;10313261;28;20414;-50
2022/12/23 05:58:08;;;;;;;4.13;2.00;;;;;;;18.92;53.90;95803.09;10292617;28;20055;-48
2022/12/23 06:03:27;;;;;;;5.85;2.45;;;;;;;18.94;53.70;95806.22;10296759;28;20050;-50
2022/12/23 06:08:47;;;;;;;8.77;3.20;;;;;;;18.94;53.61;95800.84;10299030;28;20054;-50
2022/12/23 06:14:06;;;;;;;8.23;2.90;;;;;;;18.95;53.66;95789.69;10311649;28;20059;-49
2022/12/23 06:19:26;;;;;;;8.65;2.80;;;;;;;18.96;53.63;95799.34;10295925;28;20491;-50
2022/12/23 06:24:45;;;;;;;10.63;2.90;;;;;;;18.98;53.70;95811.72;10295935;28;20062;-52
2022/12/23 06:30:06;;;;;;;8.13;3.30;;;;;;;18.99;53.71;95810.59;10295305;28;20063;-51
2022/12/23 06:35:25;;;;;;;8.20;3.20;;;;;;;19.00;53.66;95818.34;10296695;28;20055;-49
2022/12/23 06:40:45;;;;;;;9.02;3.00;;;;;;;19.02;53.73;95824.19;10301649;28;20422;-50
2022/12/23 06:46:05;;;;;;;8.20;3.13;;;;;;;19.04;53.79;95837.34;10343431;28;20380;-49
2022/12/23 06:51:24;;;;;;;9.07;3.22;;;;;;;19.05;53.84;95845.09;10330951;28;20073;-48
2022/12/23 06:56:44;;;;;;;7.22;2.90;;;;;;;19.06;53.86;95848.59;10317281;28;20392;-49
2022/12/23 07:02:03;;;;;;;10.73;3.03;;;;;;;19.08;53.86;95855.19;10329752;28;20534;-48
2022/12/23 07:07:22;;;;;;;7.13;2.75;;;;;;;19.12;53.83;95845.28;10331505;28;20050;-50
2022/12/23 07:12:42;;;;;;;7.97;2.65;;;;;;;19.15;53.72;95855.41;10304632;28;20118;-51
2022/12/23 07:18:02;;;;;;;7.20;2.85;;;;;;;19.16;53.75;95859.66;10329424;28;20050;-52
2022/12/23 07:23:21;;;;;;;6.85;2.70;;;;;;;19.19;53.93;95844.72;10311425;28;20054;-48
2022/12/23 07:28:43;;;;;;;6.88;2.30;;;;;;;19.21;53.90;95853.25;10305052;28;20047;-49
2022/12/23 07:34:05;;;;;;;8.15;3.00;;;;;;;19.23;54.21;95850.19;10328232;28;20058;-50
2022/12/23 07:39:24;;;;;;;8.65;2.60;;;;;;;19.25;53.51;95853.31;10337705;28;20112;-50
2022/12/23 07:44:43;;;;;;;6.60;2.47;;;;;;;19.27;53.62;95843.75;10350742;28;20557;-51
2022/12/23 07:50:04;;;;;;;7.47;2.45;;;;;;;19.30;53.37;95836.88;10324205;28;20050;-50
2022/12/23 07:55:24;;;;;;;6.70;2.30;;;;;;;19.32;53.16;95834.63;10284620;28;20498;-51
2022/12/23 08:00:43;;;;;;;5.57;2.67;;;;;;;19.33;53.50;95855.88;10332019;28;20104;-48
2022/12/23 08:06:06;;;;;;;5.47;2.13;;;;;;;19.35;53.26;95863.66;10306764;28;20112;-49
2022/12/23 08:11:25;;;;;;;6.03;2.08;;;;;;;19.38;53.30;95862.94;10288194;28;20066;-49
2022/12/23 08:16:46;;;;;;;5.90;1.88;;;;;;;19.40;53.00;95865.28;10284368;28;20054;-47
2022/12/23 08:22:06;;;;;;;5.05;2.00;;;;;;;19.43;52.90;95872.72;10291440;28;20066;-50
2022/12/23 08:27:26;;;;;;;4.80;1.90;;;;;;;19.45;52.84;95867.75;10293196;28;20110;-46
2022/12/23 08:32:45;;;;;;;5.05;1.92;;;;;;;19.48;52.75;95867.84;10294282;28;20055;-47
2022/12/23 08:38:05;;;;;;;4.28;2.10;;;;;;;19.49;52.86;95866.72;10295354;28;20063;-48
2022/12/23 08:43:25;;;;;;;4.30;1.50;;;;;;;19.51;52.79;95866.38;10295015;28;20423;-46
2022/12/23 08:48:45;;;;;;;7.43;1.85;;;;;;;19.53;52.61;95870.28;10285740;28;20066;-47
2022/12/23 08:54:05;;;;;;;5.75;1.70;;;;;;;19.55;52.91;95878.84;10282775;28;20062;-48
2022/12/23 08:59:24;;;;;;;3.22;1.80;;;;;;;19.53;47.72;95886.50;10294964;28;20065;-47
2022/12/23 09:04:43;;;;;;;2.60;1.60;;;;;;;19.47;46.02;95890.59;10300023;28;20051;-47
2022/12/23 09:10:03;;;;;;;3.17;1.65;;;;;;;19.47;46.93;95885.19;10307109;28;20055;-47
2022/12/23 09:15:23;;;;;;;2.80;1.60;;;;;;;19.52;48.46;95876.03;10334389;28;20066;-50
2022/12/23 09:20:42;;;;;;;2.83;1.83;;;;;;;19.56;48.69;95893.13;10324399;28;20058;-48
2022/12/23 09:26:06;;;;;;;2.47;1.40;;;;;;;19.60;48.54;95891.31;10332982;28;20116;-46
2022/12/23 09:31:27;;;;;;;3.03;1.50;;;;;;;19.63;48.97;95892.53;10346371;28;20503;-48
2022/12/23 09:36:46;;;;;;;2.20;1.48;;;;;;;19.65;49.26;95884.88;10333426;28;20058;-48
2022/12/23 09:42:05;;;;;;;3.40;1.60;;;;;;;19.68;49.11;95884.16;10332886;28;20137;-48
2022/12/23 09:47:27;;;;;;;2.83;1.50;;;;;;;19.72;48.66;95895.91;10332275;28;20061;-49
2022/12/23 09:52:59;;;;;;;3.63;1.52;;;;;;;19.61;49.07;95889.41;10317877;28;20058;-48
2022/12/23 09:58:34;;;;;;;2.45;1.30;;;;;;;19.69;49.78;95891.91;10332323;28;20054;-47
2022/12/23 10:04:22;;;;;;;4.35;1.50;;;;;;;19.75;48.98;95892.47;10312511;28;20062;-48
2022/12/23 10:09:44;;;;;;;3.00;1.60;;;;;;;19.77;49.27;95890.22;10330177;28;20109;-48
2022/12/23 10:15:34;;;;;;;3.25;1.30;;;;;;;19.81;49.65;95898.44;10332409;28;20062;-48
2022/12/23 10:21:02;;;;;;;4.93;1.67;;;;;;;19.81;49.89;95907.31;10326290;28;20156;-49
2022/12/23 10:26:31;;;;;;;2.50;1.60;;;;;;;19.83;50.33;95920.47;10317422;28;20050;-50
2022/12/23 10:32:05;;;;;;;4.40;1.40;;;;;;;19.85;50.77;95924.41;10344931;28;20054;-49
2022/12/23 10:37:43;;;;;;;2.50;1.38;;;;;;;19.87;51.29;95924.84;10317208;28;20058;-49
2022/12/23 10:43:03;;;;;;;3.55;1.33;;;;;;;19.88;51.53;95925.66;10324664;28;20058;-48
2022/12/23 10:49:02;;;;;;;1.55;1.33;;;;;;;19.91;51.99;95935.75;10337870;28;20058;-49
2022/12/23 10:54:26;;;;;;;2.85;1.42;;;;;;;19.93;52.25;95942.41;10220194;28;20148;-46
2022/12/23 10:59:45;;;;;;;3.17;1.40;;;;;;;19.97;52.23;95941.69;10338843;28;20537;-46
2022/12/23 11:05:11;;;;;;;3.65;1.38;;;;;;;19.97;52.22;95937.06;10327698;28;20430;-49
2022/12/23 11:10:32;;;;;;;3.47;1.55;;;;;;;19.99;52.48;95929.38;10335833;28;20502;-48
2022/12/23 11:15:52;;;;;;;2.20;1.17;;;;;;;20.01;52.75;95937.94;10337289;28;20058;-50
2022/12/23 11:21:13;;;;;;;1.25;1.00;;;;;;;20.02;51.30;95941.44;10345182;28;20402;-50
2022/12/23 11:26:33;;;;;;;1.92;1.00;;;;;;;20.05;49.92;95927.22;10351299;28;20050;-48
2022/12/23 11:31:52;;;;;;;2.15;1.20;;;;;;;20.06;50.99;95926.09;10334970;28;20062;-50
2022/12/23 11:37:35;;;;;;;3.63;1.20;;;;;;;20.06;51.27;95916.06;10341090;28;20050;-49
2022/12/23 11:42:57;;;;;;;3.15;1.10;;;;;;;20.08;51.10;95918.41;10319379;28;20063;-49
2022/12/23 11:48:29;;;;;;;1.70;1.08;;;;;;;20.08;51.54;95927.31;10328867;28;20529;-50
2022/12/23 11:53:59;;;;;;;2.00;1.23;;;;;;;20.09;51.10;95918.06;10337075;28;20050;-49
2022/12/23 11:59:34;;;;;;;2.63;1.20;;;;;;;20.10;51.69;95910.75;10323303;28;20058;-50
2022/12/23 12:05:00;;;;;;;1.17;1.05;;;;;;;20.11;51.80;95910.41;10340893;28;20054;-49
2022/12/23 12:10:24;;;;;;;3.03;1.20;;;;;;;20.14;51.86;95911.59;10326748;28;20061;-50
2022/12/23 12:15:53;;;;;;;1.98;1.08;;;;;;;20.15;51.62;95915.91;10321835;28;20058;-48
2022/12/23 12:21:20;;;;;;;1.77;1.33;;;;;;;20.17;51.56;95923.63;10320642;28;20069;-49
2022/12/23 12:26:40;;;;;;;1.35;0.93;;;;;;;20.18;51.63;95923.28;10334487;28;20050;-51
2022/12/23 12:32:01;;;;;;;1.83;1.23;;;;;;;20.19;51.96;95922.19;10334629;28;20058;-48
2022/12/23 12:37:44;;;;;;;1.83;0.82;;;;;;;20.19;51.61;95916.75;10335780;28;20058;-49
2022/12/23 12:43:26;;;;;;;2.55;1.08;;;;;;;20.21;51.42;95906.38;10327744;28;20069;-50
2022/12/23 12:48:53;;;;;;;1.38;0.95;;;;;;;20.21;51.52;95905.56;10320801;28;20469;-50
2022/12/23 12:54:15;;;;;;;3.13;1.02;;;;;;;20.22;51.34;95916.06;10333096;28;20046;-49
2022/12/23 12:59:37;;;;;;;6.10;1.00;;;;;;;20.27;50.91;95925.84;10335158;28;20065;-49
2022/12/23 13:05:28;;;;;;;2.35;0.98;;;;;;;20.26;51.47;95921.56;10319885;28;20062;-49
2022/12/23 13:10:55;;;;;;;2.28;0.90;;;;;;;20.27;51.15;95917.72;10326902;28;20059;-50
2022/12/23 13:16:30;;;;;;;4.82;1.00;;;;;;;20.28;51.08;95911.94;10311919;28;20400;-49
2022/12/23 13:22:04;;;;;;;4.93;0.90;;;;;;;20.28;51.34;95920.06;10305735;28;20050;-48
2022/12/23 13:27:34;;;;;;;1.15;0.90;;;;;;;20.31;50.67;95924.00;10307115;28;20050;-49
2022/12/23 13:33:16;;;;;;;4.90;1.30;;;;;;;20.31;50.73;95919.38;10279105;28;20058;-49
2022/12/23 13:38:40;;;;;;;5.85;1.10;;;;;;;20.32;51.25;95917.44;10281068;28;20506;-51
2022/12/23 13:44:04;;;;;;;1.60;1.00;;;;;;;20.34;51.60;95920.56;10291292;28;20050;-48
2022/12/23 13:49:58;;;;;;;1.92;0.95;;;;;;;20.33;51.37;95903.56;10304060;28;20090;-46
2022/12/23 13:55:20;;;;;;;3.97;0.98;;;;;;;20.33;51.33;95900.88;10291261;28;20140;-45
2022/12/23 14:00:40;;;;;;;1.13;0.73;;;;;;;20.31;51.32;95897.72;10311067;28;20495;-47
2022/12/23 14:06:40;;;;;;;0.93;0.70;;;;;;;20.33;51.58;95906.28;10301983;28;20063;-48
2022/12/23 14:12:32;;;;;;;2.50;0.93;;;;;;;20.32;51.56;95903.91;10300878;28;20066;-48
2022/12/23 14:18:07;;;;;;;3.22;0.90;;;;;;;20.32;51.65;95899.28;10326412;28;20051;-48
2022/12/23 14:23:41;;;;;;;2.95;1.00;;;;;;;20.30;51.64;95888.03;10335005;28;20061;-47
2022/12/23 14:29:15;;;;;;;3.38;1.00;;;;;;;20.30;51.53;95874.50;10323502;28;20054;-46
2022/12/23 14:34:35;;;;;;;1.75;1.00;;;;;;;20.30;51.29;95869.09;10331582;28;20533;-45
2022/12/23 14:39:54;;;;;;;1.08;0.80;;;;;;;20.30;51.48;95873.72;10344699;28;20120;-48
2022/12/23 14:45:34;;;;;;;2.53;1.10;;;;;;;20.28;51.47;95865.19;10331664;28;20069;-45
2022/12/23 14:51:01;;;;;;;2.97;1.00;;;;;;;20.29;51.40;95872.19;10331845;28;20063;-45
2022/12/23 14:56:39;;;;;;;5.10;1.13;;;;;;;20.27;51.43;95869.81;10329757;28;20431;-44
2022/12/23 15:02:12;;;;;;;7.23;1.47;;;;;;;20.27;51.44;95867.13;10344630;28;20449;-46
2022/12/23 15:07:41;;;;;;;3.58;1.10;;;;;;;20.27;51.22;95877.94;10327104;28;20307;-45
2022/12/23 15:13:05;;;;;;;1.92;1.00;;;;;;;20.25;51.35;95853.16;10336225;28;20453;-45
2022/12/23 15:18:25;;;;;;;3.08;1.27;;;;;;;20.22;51.04;95845.72;10325651;28;20087;-46
2022/12/23 15:23:49;;;;;;;3.13;1.15;;;;;;;20.24;49.97;95848.88;10344022;28;20062;-46
2022/12/23 15:29:09;;;;;;;3.83;1.42;;;;;;;20.22;50.45;95861.97;10331051;28;20117;-44
2022/12/23 15:34:30;;;;;;;2.88;1.10;;;;;;;20.20;50.60;95850.72;10336069;28;20418;-48
2022/12/23 15:39:50;;;;;;;3.88;1.38;;;;;;;20.20;50.73;95858.03;10350917;28;20055;-48
2022/12/23 15:45:21;;;;;;;5.03;1.30;;;;;;;20.17;51.19;95864.94;10349921;28;20046;-45
2022/12/23 15:50:41;;;;;;;3.13;1.10;;;;;;;20.14;51.35;95861.00;10337224;28;20077;-45
2022/12/23 15:56:05;;;;;;;3.47;1.13;;;;;;;20.15;51.37;95869.94;10323892;28;20112;-45
2022/12/23 16:01:25;;;;;;;4.75;1.35;;;;;;;20.14;51.63;95862.94;10322477;28;20058;-43
2022/12/23 16:06:50;;;;;;;4.30;1.30;;;;;;;20.12;51.66;95857.88;10335970;28;20112;-45
2022/12/23 16:12:22;;;;;;;3.70;1.20;;;;;;;20.10;51.60;95851.25;10335559;28;20069;-46
2022/12/23 16:17:41;;;;;;;4.20;1.08;;;;;;;20.10;51.78;95868.25;10325172;28;20126;-42
2022/12/23 16:23:01;;;;;;;2.83;1.20;;;;;;;20.08;51.90;95851.59;10328290;28;20505;-44
2022/12/23 16:28:25;;;;;;;5.38;2.17;;;;;;;20.09;52.69;95855.06;10335783;28;20058;-45
2022/12/23 16:33:50;;;;;;;5.70;1.30;;;;;;;20.08;53.25;95864.34;10335876;28;20410;-46
2022/12/23 16:39:20;;;;;;;4.30;1.40;;;;;;;20.09;53.41;95852.38;10321044;28;20105;-52
2022/12/23 16:44:40;;;;;;;5.85;1.30;;;;;;;20.07;53.83;95844.63;10334645;28;20466;-44
2022/12/23 16:49:59;;;;;;;5.68;1.40;;;;;;;20.05;54.08;95827.19;10332693;28;20062;-47
2022/12/23 16:55:19;;;;;;;8.02;1.50;;;;;;;20.06;54.42;95820.66;10347009;28;20069;-46
2022/12/23 17:00:39;;;;;;;6.57;1.40;;;;;;;20.04;54.39;95826.41;10334678;28;20058;-46
2022/12/23 17:05:58;;;;;;;9.20;1.60;;;;;;;20.03;54.46;95826.75;10334478;28;20050;-48
2022/12/23 17:11:21;;;;;;;4.53;1.17;;;;;;;20.02;55.21;95825.97;10343602;28;20568;-42
2022/12/23 17:16:42;;;;;;;5.22;1.17;;;;;;;20.02;54.89;95815.16;10318539;28;20059;-43
2022/12/23 17:22:03;;;;;;;4.85;1.27;;;;;;;20.02;54.80;95808.97;10343409;28;20047;-44
2022/12/23 17:27:24;;;;;;;3.08;1.20;;;;;;;20.01;54.90;95813.56;10333392;28;20066;-43
2022/12/23 17:32:51;;;;;;;3.30;1.20;;;;;;;20.00;54.72;95816.66;10332708;28;20066;-44
2022/12/23 17:38:15;;;;;;;2.95;1.10;;;;;;;19.97;54.68;95809.22;10318031;28;20557;-43
2022/12/23 17:43:34;;;;;;;2.67;1.00;;;;;;;19.98;54.93;95802.69;10328647;28;20059;-44
2022/12/23 17:48:56;;;;;;;3.08;1.30;;;;;;;19.95;54.80;95794.16;10331858;28;20062;-47
2022/12/23 17:54:21;;;;;;;15.68;13.30;;;;;;;19.95;54.48;95796.06;10330518;28;20058;-43
2022/12/23 17:59:41;;;;;;;9.75;6.70;;;;;;;19.95;54.31;95791.44;10317781;28;20050;-45
2022/12/23 18:05:04;;;;;;;7.53;5.15;;;;;;;19.95;54.20;95791.44;10331917;28;20093;-44
2022/12/23 18:10:30;;;;;;;9.35;4.20;;;;;;;19.94;54.39;95779.06;10316687;28;20146;-48
2022/12/23 18:15:49;;;;;;;5.30;3.33;;;;;;;19.93;53.11;95765.88;10330635;28;20046;-44
2022/12/23 18:21:12;;;;;;;5.65;3.58;;;;;;;19.91;53.22;95747.31;10325157;28;20058;-49
2022/12/23 18:26:33;;;;;;;5.78;3.67;;;;;;;19.90;53.32;95731.47;10331376;28;20502;-50
2022/12/23 18:31:52;;;;;;;8.35;4.78;;;;;;;19.88;53.35;95721.00;10331951;28;20062;-52
2022/12/23 18:37:12;;;;;;;10.20;4.28;;;;;;;19.87;53.89;95708.59;10331542;28;20054;-52
2022/12/23 18:42:33;;;;;;;6.03;4.10;;;;;;;19.87;54.80;95691.63;10331825;28;20137;-46
2022/12/23 18:47:53;;;;;;;6.32;3.83;;;;;;;19.87;55.66;95686.22;10337745;28;20046;-52
2022/12/23 18:53:18;;;;;;;6.90;3.95;;;;;;;19.87;56.17;95678.88;10330473;28;20054;-54
2022/12/23 18:58:38;;;;;;;7.20;3.67;;;;;;;19.87;56.45;95668.06;10309240;28;20059;-57
2022/12/23 19:03:57;;;;;;;7.80;4.22;;;;;;;19.87;56.45;95668.06;10315100;28;20054;-57
2022/12/23 19:09:19;;;;;;;8.80;5.43;;;;;;;19.85;56.36;95681.16;10312722;28;20418;-51
2022/12/23 19:14:38;;;;;;;7.32;5.03;;;;;;;19.85;56.83;95673.03;10313815;28;20058;-52
2022/12/23 19:19:59;;;;;;;5.82;4.20;;;;;;;19.83;56.16;95675.31;10339247;28;20569;-50
2022/12/23 19:25:18;;;;;;;6.25;4.50;;;;;;;19.83;56.11;95666.44;10309420;28;20116;-49
2022/12/23 19:30:41;;;;;;;6.75;4.40;;;;;;;19.81;55.83;95658.69;10310544;28;20104;-56
2022/12/23 19:36:01;;;;;;;6.93;4.82;;;;;;;19.80;55.66;95650.91;10330161;28;20097;-57
2022/12/23 19:41:20;;;;;;;6.00;4.47;;;;;;;19.75;55.60;95652.75;10302907;28;20057;-56
2022/12/23 19:46:40;;;;;;;5.40;4.13;;;;;;;19.74;55.46;95661.25;10304636;28;20066;-55
2022/12/23 19:52:01;;;;;;;8.18;5.20;;;;;;;19.74;55.91;95647.72;10325168;28;20137;-55
2022/12/23 19:57:21;;;;;;;6.53;4.70;;;;;;;19.72;55.57;95641.91;10345995;28;20498;-54
2022/12/23 20:02:41;;;;;;;7.85;5.30;;;;;;;19.70;55.71;95614.41;10321747;28;20442;-59
2022/12/23 20:08:00;;;;;;;6.25;4.55;;;;;;;19.68;55.48;95600.44;10306811;28;20066;-59
2022/12/23 20:13:20;;;;;;;7.25;4.50;;;;;;;19.68;55.76;95600.44;10302959;28;20099;-58
2022/12/23 20:18:39;;;;;;;6.05;4.85;;;;;;;19.66;55.77;95600.03;10305904;28;20058;-48
2022/12/23 20:23:59;;;;;;;6.72;5.10;;;;;;;19.64;55.51;95594.19;10335945;28;20054;-52
2022/12/23 20:29:18;;;;;;;11.95;5.75;;;;;;;19.63;56.19;95587.25;10336129;28;20055;-49
2022/12/23 20:34:38;;;;;;;12.18;5.97;;;;;;;19.64;55.83;95583.38;10312582;28;20066;-58
2022/12/23 20:39:59;;;;;;;15.70;6.35;;;;;;;19.63;55.86;95571.03;10304915;28;20387;-66
2022/12/23 20:45:19;;;;;;;13.90;5.53;;;;;;;19.62;56.06;95569.44;10312869;28;20050;-60
2022/12/23 20:50:40;;;;;;;18.52;6.65;;;;;;;19.62;56.19;95582.97;10322083;28;20051;-57
2022/12/23 20:56:04;;;;;;;11.48;5.47;;;;;;;19.60;56.63;95572.53;10333269;28;20054;-59
2022/12/23 21:01:33;;;;;;;13.82;6.30;;;;;;;19.60;56.32;95585.22;10319885;28;20058;-60
2022/12/23 21:06:54;;;;;;;13.43;5.95;;;;;;;19.59;56.36;95610.69;10332995;28;20046;-53
2022/12/23 21:12:16;;;;;;;12.25;5.97;;;;;;;19.59;56.10;95621.50;10333582;28;20528;-54
2022/12/23 21:17:40;;;;;;;13.50;5.97;;;;;;;19.58;56.27;95612.59;10333159;28;20422;-58
2022/12/23 21:22:59;;;;;;;12.15;6.15;;;;;;;19.58;56.32;95617.22;10334014;28;20062;-54
2022/12/23 21:28:19;;;;;;;10.48;5.88;;;;;;;19.57;56.46;95608.34;10333600;28;20112;-54
2022/12/23 21:33:40;;;;;;;17.55;5.97;;;;;;;19.56;56.85;95596.75;10325727;28;20113;-50
2022/12/23 21:39:00;;;;;;;11.75;5.90;;;;;;;19.56;56.47;95623.78;10333732;28;20054;-50
2022/12/23 21:44:19;;;;;;;28.73;11.60;;;;;;;19.56;56.91;95602.16;10333227;28;20058;-51
2022/12/23 21:49:42;;;;;;;23.23;9.23;;;;;;;19.54;56.72;95599.03;10321666;28;20057;-50
2022/12/23 21:55:02;;;;;;;19.15;8.98;;;;;;;19.53;56.58;95600.16;10342753;28;20457;-51
2022/12/23 22:00:21;;;;;;;19.27;7.57;;;;;;;19.52;56.62;95600.50;10344421;28;20498;-50
2022/12/23 22:05:41;;;;;;;16.13;7.15;;;;;;;19.51;56.54;95594.31;10330999;28;20054;-49
2022/12/23 22:11:08;;;;;;;15.02;6.53;;;;;;;19.51;56.58;95588.91;10331976;28;20109;-50
2022/12/23 22:16:29;;;;;;;14.13;6.90;;;;;;;19.49;56.47;95593.13;10329974;28;20077;-51
2022/12/23 22:21:49;;;;;;;12.63;5.82;;;;;;;19.48;56.77;95603.16;10331093;28;20406;-50
2022/12/23 22:27:08;;;;;;;14.85;5.57;;;;;;;19.47;56.53;95617.00;10330923;28;20058;-49
2022/12/23 22:32:27;;;;;;;14.80;5.72;;;;;;;19.45;56.30;95614.63;10344666;28;20058;-50
2022/12/23 22:37:47;;;;;;;10.88;5.53;;;;;;;19.45;56.22;95627.38;10331572;28;20058;-50
2022/12/23 22:43:06;;;;;;;15.65;5.35;;;;;;;19.44;56.25;95639.28;10336269;28;20073;-50
2022/12/23 22:48:30;;;;;;;13.15;5.45;;;;;;;19.42;56.13;95628.84;10339015;28;20490;-49
2022/12/23 22:53:50;;;;;;;10.40;5.47;;;;;;;19.41;56.08;95638.09;10333818;28;20062;-51
2022/12/23 22:59:22;;;;;;;9.25;4.85;;;;;;;19.39;56.09;95659.25;10324161;28;20422;-50
2022/12/23 23:04:41;;;;;;;9.30;5.13;;;;;;;19.39;56.17;95664.66;10338795;28;20093;-50
2022/12/23 23:10:01;;;;;;;11.25;4.65;;;;;;;19.37;55.99;95683.13;10338906;28;20061;-49
2022/12/23 23:15:20;;;;;;;10.52;5.07;;;;;;;19.36;56.17;95700.47;10338908;28;20062;-50
2022/12/23 23:20:40;;;;;;;10.68;4.70;;;;;;;19.36;56.11;95703.16;10325854;28;20058;-48
2022/12/23 23:26:00;;;;;;;9.75;4.45;;;;;;;19.35;56.07;95723.22;10338403;28;20066;-51
2022/12/23 23:31:19;;;;;;;8.48;4.20;;;;;;;19.34;55.96;95724.34;10351010;28;20502;-50
2022/12/23 23:36:39;;;;;;;7.47;4.30;;;;;;;19.33;56.12;95714.69;10336983;28;20065;-50
2022/12/23 23:41:59;;;;;;;8.70;4.32;;;;;;;19.32;55.99;95721.19;10350919;28;20134;-49
2022/12/23 23:47:18;;;;;;;8.15;4.20;;;;;;;19.30;56.05;95704.56;10350556;28;20046;-50
2022/12/23 23:52:37;;;;;;;9.32;4.22;;;;;;;19.28;56.04;95701.44;10350152;28;20046;-50
2022/12/23 23:57:57;;;;;;;9.15;3.85;;;;;;;19.28;56.02;95706.81;10336682;28;20058;-49
